createdAt,value
2019-03-28T00:00:48.530Z,172.53
2019-03-28T00:03:18.149Z,155.57
2019-03-28T00:05:47.880Z,145.20
2019-03-28T00:08:17.405Z,148.60
2019-03-28T00:10:48.574Z,161.77
2019-03-28T00:13:18.200Z,159.82
2019-03-28T00:15:47.930Z,149.27
2019-03-28T00:18:17.661Z,156.57
2019-03-28T00:20:47.428Z,160.50
2019-03-28T00:23:21.215Z,139.72
2019-03-28T00:25:50.763Z,132.37
2019-03-28T00:28:20.260Z,120.65
2019-03-28T00:30:49.863Z,102.63
2019-03-28T00:33:19.384Z,109.57
2019-03-28T00:35:48.928Z,92.90
2019-03-28T00:38:18.536Z,93.37
2019-03-28T00:40:48.153Z,92.53
2019-03-28T00:43:17.922Z,86.90
2019-03-28T00:45:47.648Z,84.75
2019-03-28T00:48:17.281Z,75.40
2019-03-28T00:50:46.918Z,84.55
2019-03-28T00:53:16.639Z,79.55
2019-03-28T00:55:46.183Z,78.02
2019-03-28T00:58:15.797Z,87.45
2019-03-28T01:00:45.529Z,85.90
2019-03-28T01:03:15.158Z,80.30
2019-03-28T01:05:44.780Z,85.95
2019-03-28T01:08:14.510Z,88.20
2019-03-28T01:10:44.243Z,82.25
2019-03-28T01:13:13.867Z,78.67
2019-03-28T01:15:43.516Z,92.70
2019-03-28T01:18:12.997Z,94.72
2019-03-28T01:20:42.748Z,82.70
2019-03-28T01:23:12.478Z,86.10
2019-03-28T01:25:42.105Z,86.92
2019-03-28T01:28:11.838Z,80.38
2019-03-28T01:30:41.565Z,77.55
2019-03-28T01:33:11.095Z,69.27
2019-03-28T01:35:40.819Z,81.60
2019-03-28T01:38:10.452Z,72.27
2019-03-28T01:40:40.182Z,71.67
2019-03-28T01:43:09.921Z,67.67
2019-03-28T01:45:39.646Z,52.05
2019-03-28T01:48:09.381Z,55.63
2019-03-28T01:50:39.018Z,51.98
2019-03-28T01:53:08.633Z,62.17
2019-03-28T01:55:38.262Z,82.00
2019-03-28T01:58:07.888Z,99.60
2019-03-28T02:00:37.438Z,106.37
2019-03-28T02:03:08.777Z,118.62
2019-03-28T02:05:38.513Z,126.65
2019-03-28T02:08:08.132Z,90.70
2019-03-28T02:10:37.864Z,85.70
2019-03-28T02:13:07.593Z,82.00
2019-03-28T02:15:37.338Z,88.78
2019-03-28T02:18:07.159Z,85.28
2019-03-28T02:20:36.786Z,73.52
2019-03-28T02:23:06.530Z,62.15
2019-03-28T02:25:36.255Z,67.75
2019-03-28T02:28:05.970Z,65.62
2019-03-28T02:30:35.614Z,59.50
2019-03-28T02:33:05.330Z,68.22
2019-03-28T02:35:34.944Z,64.92
2019-03-28T02:38:04.597Z,67.82
2019-03-28T02:40:34.327Z,68.65
2019-03-28T02:43:04.071Z,69.03
2019-03-28T02:45:33.675Z,55.38
2019-03-28T02:48:03.308Z,65.52
2019-03-28T02:50:33.048Z,59.48
2019-03-28T02:53:02.775Z,48.40
2019-03-28T02:55:32.392Z,53.23
2019-03-28T02:58:02.335Z,55.92
2019-03-28T03:00:32.064Z,49.83
2019-03-28T03:03:01.809Z,48.05
2019-03-28T03:05:31.541Z,48.58
2019-03-28T03:08:01.048Z,51.23
2019-03-28T03:10:30.675Z,48.95
2019-03-28T03:13:00.304Z,46.48
2019-03-28T03:15:30.304Z,49.42
2019-03-28T03:18:00.243Z,46.60
2019-03-28T03:20:29.906Z,50.30
2019-03-28T03:22:59.533Z,55.73
2019-03-28T03:25:29.174Z,43.68
2019-03-28T03:27:59.439Z,39.40
2019-03-28T03:35:28.885Z,44.67
2019-03-28T03:37:58.628Z,47.20
2019-03-28T03:40:28.234Z,46.30
2019-03-28T03:42:57.839Z,44.90
2019-03-28T03:45:27.616Z,39.50
2019-03-28T03:47:57.342Z,37.58
2019-03-28T03:50:30.011Z,37.60
2019-03-28T03:52:59.675Z,36.30
2019-03-28T03:55:29.196Z,42.20
2019-03-28T03:58:14.459Z,37.78
2019-03-28T04:00:33.662Z,35.40
2019-03-28T04:03:03.421Z,44.83
2019-03-28T04:05:33.126Z,32.85
2019-03-28T04:08:02.758Z,33.78
2019-03-28T04:10:32.384Z,34.50
2019-03-28T04:13:01.914Z,29.87
2019-03-28T04:15:31.754Z,36.43
2019-03-28T04:18:01.380Z,34.75
2019-03-28T04:20:30.899Z,25.92
2019-03-28T04:23:00.637Z,33.35
2019-03-28T04:25:30.173Z,25.95
2019-03-28T04:27:59.876Z,27.80
2019-03-28T04:30:29.608Z,22.55
2019-03-28T04:32:59.240Z,18.42
2019-03-28T04:35:28.985Z,17.32
2019-03-28T04:37:58.778Z,23.90
2019-03-28T04:40:28.629Z,19.70
2019-03-28T04:42:58.260Z,17.92
2019-03-28T04:45:27.898Z,15.90
2019-03-28T04:47:57.521Z,23.53
2019-03-28T04:50:27.093Z,14.97
2019-03-28T04:52:56.772Z,20.25
2019-03-28T04:55:26.512Z,14.13
2019-03-28T04:57:56.129Z,20.95
2019-03-28T05:00:27.492Z,19.70
2019-03-28T05:02:57.850Z,21.05
2019-03-28T05:05:27.573Z,17.27
2019-03-28T05:07:57.202Z,23.13
2019-03-28T05:10:26.742Z,16.67
2019-03-28T05:12:56.453Z,21.23
2019-03-28T05:15:26.081Z,30.80
2019-03-28T05:17:55.809Z,20.17
2019-03-28T05:20:25.442Z,17.40
2019-03-28T05:22:55.063Z,15.60
2019-03-28T05:25:24.799Z,17.80
2019-03-28T05:27:54.440Z,16.32
2019-03-28T05:30:24.050Z,17.02
2019-03-28T05:32:53.686Z,17.03
2019-03-28T05:35:23.203Z,17.43
2019-03-28T05:37:52.830Z,12.15
2019-03-28T05:40:22.950Z,12.60
2019-03-28T05:42:53.933Z,15.25
2019-03-28T05:45:23.577Z,21.20
2019-03-28T05:47:53.189Z,20.03
2019-03-28T05:50:22.817Z,16.33
2019-03-28T05:52:52.547Z,22.23
2019-03-28T05:55:22.271Z,21.65
2019-03-28T05:57:51.945Z,24.67
2019-03-28T06:00:21.534Z,34.20
2019-03-28T06:02:51.267Z,30.83
2019-03-28T06:05:20.997Z,31.27
2019-03-28T06:07:52.173Z,23.73
2019-03-28T06:10:21.915Z,22.82
2019-03-28T06:12:51.626Z,19.75
2019-03-28T06:15:21.347Z,18.27
2019-03-28T06:17:50.875Z,18.07
2019-03-28T06:20:20.600Z,20.20
2019-03-28T06:22:50.327Z,19.67
2019-03-28T06:25:20.180Z,17.05
2019-03-28T06:27:50.102Z,16.15
2019-03-28T06:30:19.823Z,16.05
2019-03-28T06:32:49.562Z,14.28
2019-03-28T06:35:21.824Z,10.50
2019-03-28T06:37:51.599Z,11.90
2019-03-28T06:40:21.368Z,14.85
2019-03-28T06:42:51.130Z,17.75
2019-03-28T06:45:20.761Z,18.52
2019-03-28T06:47:50.389Z,12.53
2019-03-28T06:50:20.017Z,9.70
2019-03-28T06:52:49.699Z,8.77
2019-03-28T06:55:19.376Z,12.93
2019-03-28T06:57:49.005Z,10.18
2019-03-28T07:00:18.547Z,6.63
2019-03-28T07:02:48.166Z,11.73
2019-03-28T07:05:17.789Z,8.30
2019-03-28T07:07:47.534Z,8.27
2019-03-28T07:10:17.084Z,9.20
2019-03-28T07:12:46.786Z,8.57
2019-03-28T07:15:16.401Z,10.15
2019-03-28T07:17:46.022Z,8.00
2019-03-28T07:20:15.550Z,10.58
2019-03-28T07:22:46.100Z,6.00
2019-03-28T07:25:16.851Z,6.47
2019-03-28T07:27:46.352Z,7.55
2019-03-28T07:30:17.755Z,4.17
2019-03-28T07:32:47.272Z,7.42
2019-03-28T07:35:17.006Z,6.07
2019-03-28T07:37:46.629Z,5.95
2019-03-28T07:40:16.250Z,6.73
2019-03-28T07:42:45.884Z,6.70
2019-03-28T07:45:15.511Z,5.60
2019-03-28T07:47:45.137Z,6.57
2019-03-28T07:50:16.518Z,5.60
2019-03-28T07:52:46.139Z,5.12
2019-03-28T07:55:16.595Z,6.00
2019-03-28T07:57:46.748Z,6.25
2019-03-28T08:00:16.349Z,8.00
2019-03-28T08:02:45.981Z,10.50
2019-03-28T08:05:15.612Z,11.60
2019-03-28T08:07:46.448Z,8.53
2019-03-28T08:10:16.711Z,8.60
2019-03-28T08:12:46.430Z,10.05
2019-03-28T08:15:16.258Z,11.57
2019-03-28T08:17:45.895Z,10.88
2019-03-28T08:20:15.625Z,10.60
2019-03-28T08:22:45.249Z,11.35
2019-03-28T08:25:14.986Z,9.40
2019-03-28T08:27:44.618Z,10.55
2019-03-28T08:30:18.579Z,9.30
2019-03-28T08:32:45.705Z,9.73
2019-03-28T08:35:15.233Z,11.55
2019-03-28T08:40:17.967Z,9.83
2019-03-28T08:42:47.729Z,11.40
2019-03-28T08:45:17.525Z,11.93
2019-03-28T08:47:47.120Z,11.88
2019-03-28T08:50:16.886Z,15.30
2019-03-28T08:52:46.725Z,19.77
2019-03-28T08:55:16.461Z,15.83
2019-03-28T08:57:46.143Z,17.87
2019-03-28T09:00:16.781Z,16.03
2019-03-28T09:02:47.077Z,13.40
2019-03-28T09:05:16.698Z,12.37
2019-03-28T09:07:46.325Z,11.77
2019-03-28T09:10:15.950Z,15.10
2019-03-28T09:12:45.863Z,15.47
2019-03-28T09:15:15.672Z,18.70
2019-03-28T09:17:45.352Z,17.75
2019-03-28T09:20:14.979Z,15.13
2019-03-28T09:22:45.729Z,15.10
2019-03-28T09:25:15.565Z,15.97
2019-03-28T09:27:45.198Z,19.57
2019-03-28T09:30:14.814Z,13.28
2019-03-28T09:32:44.559Z,10.03
2019-03-28T09:35:20.004Z,12.35
2019-03-28T09:37:49.639Z,13.00
2019-03-28T09:40:19.212Z,9.20
2019-03-28T09:42:48.897Z,9.03
2019-03-28T09:45:18.628Z,10.40
2019-03-28T09:47:48.244Z,13.43
2019-03-28T09:50:18.088Z,8.87
2019-03-28T09:52:47.710Z,7.53
2019-03-28T09:55:19.039Z,12.03
2019-03-28T09:57:48.708Z,11.83
2019-03-28T10:00:18.547Z,11.60
2019-03-28T10:02:48.061Z,14.87
2019-03-28T10:05:17.682Z,16.47
2019-03-28T10:07:47.379Z,16.40
2019-03-28T10:10:17.053Z,17.20
2019-03-28T10:12:46.785Z,14.60
2019-03-28T10:15:16.205Z,8.73
2019-03-28T10:17:45.827Z,8.28
2019-03-28T10:20:15.567Z,6.57
2019-03-28T10:22:45.191Z,10.03
2019-03-28T10:25:14.832Z,7.03
2019-03-28T10:27:44.553Z,8.93
2019-03-28T10:30:14.276Z,12.82
2019-03-28T10:32:44.011Z,13.95
2019-03-28T10:35:16.923Z,15.70
2019-03-28T10:37:46.533Z,17.05
2019-03-28T10:40:16.273Z,9.93
2019-03-28T10:42:45.894Z,11.40
2019-03-28T10:45:15.533Z,12.77
2019-03-28T10:47:45.351Z,11.12
2019-03-28T10:50:14.987Z,12.30
2019-03-28T10:52:44.611Z,13.33
2019-03-28T10:55:14.139Z,13.10
2019-03-28T10:57:43.781Z,18.07
2019-03-28T11:00:23.547Z,17.02
2019-03-28T11:02:44.845Z,24.25
2019-03-28T11:05:14.812Z,16.37
2019-03-28T11:07:46.074Z,13.88
2019-03-28T11:10:15.599Z,10.72
2019-03-28T11:12:45.226Z,8.27
2019-03-28T11:15:14.845Z,6.15
2019-03-28T11:17:44.369Z,9.20
2019-03-28T11:20:14.093Z,5.70
2019-03-28T11:22:43.851Z,8.78
2019-03-28T11:25:13.563Z,33.50
2019-03-28T11:27:43.207Z,6.10
2019-03-28T11:30:13.018Z,4.83
2019-03-28T11:32:42.642Z,6.85
2019-03-28T11:35:12.378Z,7.70
2019-03-28T11:37:42.107Z,5.33
2019-03-28T11:40:12.837Z,7.80
2019-03-28T11:42:43.006Z,11.83
2019-03-28T11:45:12.726Z,8.05
2019-03-28T11:47:42.461Z,8.83
2019-03-28T11:50:12.217Z,8.90
2019-03-28T11:52:42.794Z,9.90
2019-03-28T11:55:12.671Z,6.72
2019-03-28T11:57:42.315Z,8.18
2019-03-28T12:00:14.282Z,6.80
2019-03-28T12:02:44.004Z,5.83
2019-03-28T12:05:13.744Z,5.45
2019-03-28T12:07:43.471Z,6.90
2019-03-28T12:10:13.209Z,6.15
2019-03-28T12:12:42.961Z,6.95
2019-03-28T12:15:13.277Z,5.28
2019-03-28T12:20:11.811Z,7.12
2019-03-28T12:22:41.549Z,7.12
2019-03-28T12:25:11.246Z,5.55
2019-03-28T12:27:40.898Z,6.70
2019-03-28T12:30:15.611Z,9.05
2019-03-28T12:32:43.639Z,5.25
2019-03-28T12:35:13.237Z,5.78
2019-03-28T12:37:42.885Z,6.10
2019-03-28T12:40:12.892Z,8.33
2019-03-28T12:42:42.552Z,6.55
2019-03-28T12:45:12.403Z,3.77
2019-03-28T12:47:43.159Z,5.62
2019-03-28T12:50:14.000Z,5.65
2019-03-28T12:52:45.001Z,5.25
2019-03-28T12:55:15.399Z,7.65
2019-03-28T12:57:48.119Z,4.28
2019-03-28T13:00:16.500Z,4.20
2019-03-28T13:02:47.248Z,6.55
2019-03-28T13:05:16.979Z,6.35
2019-03-28T13:07:46.709Z,3.87
2019-03-28T13:10:16.337Z,4.62
2019-03-28T13:12:45.869Z,6.63
2019-03-28T13:15:15.581Z,4.87
2019-03-28T13:17:45.219Z,7.65
2019-03-28T13:20:14.951Z,5.63
2019-03-28T13:22:44.683Z,6.47
2019-03-28T13:25:14.515Z,7.23
2019-03-28T13:27:44.347Z,5.22
2019-03-28T13:32:44.009Z,6.55
2019-03-28T13:35:13.646Z,5.95
2019-03-28T13:37:43.346Z,7.10
2019-03-28T13:40:13.202Z,8.58
2019-03-28T13:42:42.930Z,6.55
2019-03-28T13:45:12.564Z,6.30
2019-03-28T13:47:42.283Z,5.23
2019-03-28T13:50:12.361Z,4.93
2019-03-28T13:52:42.062Z,7.83
2019-03-28T13:55:11.945Z,7.15
2019-03-28T13:57:43.459Z,7.00
2019-03-28T14:00:13.091Z,8.88
2019-03-28T14:02:54.897Z,9.80
2019-03-28T14:05:14.088Z,8.60
2019-03-28T14:07:43.815Z,9.00
2019-03-28T14:10:13.346Z,10.18
2019-03-28T14:12:42.868Z,9.20
2019-03-28T14:15:12.611Z,11.18
2019-03-28T14:17:42.315Z,9.63
2019-03-28T14:20:12.048Z,11.68
2019-03-28T14:22:42.298Z,11.15
2019-03-28T14:25:11.920Z,12.43
2019-03-28T14:27:41.759Z,21.33
2019-03-28T14:30:11.879Z,17.02
2019-03-28T14:32:52.592Z,25.12
2019-03-28T14:35:13.000Z,17.50
2019-03-28T14:37:42.832Z,36.58
2019-03-28T14:40:12.563Z,22.75
2019-03-28T14:42:42.284Z,28.65
2019-03-28T14:45:12.030Z,22.47
2019-03-28T14:47:41.748Z,17.20
2019-03-28T14:50:11.681Z,20.97
2019-03-28T14:52:41.316Z,18.17
2019-03-28T14:55:11.139Z,16.97
2019-03-28T14:57:41.183Z,21.10
2019-03-28T15:00:13.979Z,24.85
2019-03-28T15:02:43.799Z,20.52
2019-03-28T15:05:13.533Z,25.85
2019-03-28T15:07:43.058Z,18.23
2019-03-28T15:10:13.914Z,16.15
2019-03-28T15:12:43.747Z,17.52
2019-03-28T15:15:13.373Z,13.93
2019-03-28T15:17:44.976Z,11.90
2019-03-28T15:20:14.262Z,8.98
2019-03-28T15:22:44.006Z,9.00
2019-03-28T15:25:13.624Z,8.65
2019-03-28T15:27:43.671Z,8.20
2019-03-28T15:30:13.288Z,4.90
2019-03-28T15:32:42.913Z,5.07
2019-03-28T15:35:12.639Z,5.17
2019-03-28T15:37:42.379Z,12.85
2019-03-28T15:40:12.106Z,3.27
2019-03-28T15:42:41.946Z,6.00
2019-03-28T15:45:11.561Z,3.85
2019-03-28T15:47:41.435Z,5.85
2019-03-28T15:50:11.126Z,7.15
2019-03-28T15:52:41.988Z,30.20
2019-03-28T15:55:14.556Z,6.03
2019-03-28T15:57:43.185Z,5.45
2019-03-28T16:00:12.825Z,5.45
2019-03-28T16:02:42.411Z,4.43
2019-03-28T16:05:12.064Z,4.10
2019-03-28T16:07:41.807Z,6.15
2019-03-28T16:10:14.553Z,4.35
2019-03-28T16:12:42.890Z,6.53
2019-03-28T16:15:12.428Z,9.20
2019-03-28T16:17:42.150Z,5.33
2019-03-28T16:20:11.768Z,8.30
2019-03-28T16:22:41.355Z,8.93
2019-03-28T16:25:12.048Z,14.78
2019-03-28T16:27:41.787Z,54.05
2019-03-28T16:30:12.531Z,35.60
2019-03-28T16:32:42.376Z,69.32
2019-03-28T16:35:11.993Z,62.50
2019-03-28T16:37:41.521Z,37.43
2019-03-28T16:40:11.365Z,31.60
2019-03-28T16:42:41.737Z,49.15
2019-03-28T16:47:40.643Z,91.63
2019-03-28T16:50:12.018Z,93.52
2019-03-28T16:52:41.777Z,88.33
2019-03-28T16:55:11.378Z,105.85
2019-03-28T16:57:41.113Z,97.12
2019-03-28T17:00:14.105Z,125.22
2019-03-28T17:02:43.820Z,86.32
2019-03-28T17:05:13.572Z,54.08
2019-03-28T17:07:43.974Z,100.18
2019-03-28T17:10:16.945Z,145.60
2019-03-28T17:12:46.730Z,71.67
2019-03-28T17:15:16.292Z,39.48
2019-03-28T17:17:45.905Z,75.22
2019-03-28T17:20:15.519Z,37.67
2019-03-28T17:22:45.168Z,38.28
2019-03-28T17:25:14.795Z,49.03
2019-03-28T17:27:46.566Z,85.77
2019-03-28T17:30:16.082Z,91.80
2019-03-28T17:32:45.816Z,43.05
2019-03-28T17:35:15.552Z,45.30
2019-03-28T17:37:45.277Z,27.32
2019-03-28T17:40:14.900Z,38.17
2019-03-28T17:42:47.735Z,21.43
2019-03-28T17:45:15.896Z,33.45
2019-03-28T17:47:45.529Z,47.17
2019-03-28T17:50:15.004Z,60.20
2019-03-28T17:52:45.808Z,31.93
2019-03-28T17:55:15.558Z,35.85
2019-03-28T17:57:45.378Z,40.65
2019-03-28T18:00:15.093Z,22.13
2019-03-28T18:02:44.819Z,26.02
2019-03-28T18:05:15.974Z,33.55
2019-03-28T18:07:45.919Z,31.60
2019-03-28T18:10:15.546Z,36.28
2019-03-28T18:12:45.278Z,26.82
2019-03-28T18:15:15.048Z,29.35
2019-03-28T18:17:45.398Z,19.77
2019-03-28T18:20:15.592Z,18.27
2019-03-28T18:22:45.227Z,24.47
2019-03-28T18:25:16.097Z,30.40
2019-03-28T18:27:45.933Z,31.10
2019-03-28T18:30:16.175Z,24.80
2019-03-28T18:32:45.776Z,20.80
2019-03-28T18:35:15.393Z,19.27
2019-03-28T18:37:45.059Z,18.75
2019-03-28T18:40:14.675Z,19.73
2019-03-28T18:42:44.289Z,21.25
2019-03-28T18:45:13.916Z,17.33
2019-03-28T18:47:43.911Z,16.07
2019-03-28T18:50:13.686Z,17.02
2019-03-28T18:52:43.318Z,17.77
2019-03-28T18:55:12.941Z,26.48
2019-03-28T18:57:42.573Z,18.40
2019-03-28T19:00:12.206Z,18.67
2019-03-28T19:02:43.489Z,31.68
2019-03-28T19:05:19.741Z,16.27
2019-03-28T19:07:44.564Z,14.95
2019-03-28T19:10:14.901Z,17.12
2019-03-28T19:12:44.467Z,18.40
2019-03-28T19:15:14.053Z,23.87
2019-03-28T19:17:43.791Z,23.52
2019-03-28T19:20:15.053Z,19.35
2019-03-28T19:22:44.677Z,22.15
2019-03-28T19:25:14.309Z,25.77
2019-03-28T19:27:44.807Z,36.33
2019-03-28T19:30:14.679Z,25.92
2019-03-28T19:32:44.308Z,38.65
2019-03-28T19:35:13.997Z,32.08
2019-03-28T19:37:43.788Z,28.30
2019-03-28T19:40:13.566Z,24.47
2019-03-28T19:42:44.011Z,28.55
2019-03-28T19:45:17.059Z,37.93
2019-03-28T19:47:46.629Z,26.95
2019-03-28T19:50:19.479Z,23.50
2019-03-28T19:52:49.108Z,19.60
2019-03-28T19:55:22.016Z,27.85
2019-03-28T19:57:51.837Z,20.02
2019-03-28T20:00:21.429Z,24.52
2019-03-28T20:02:51.028Z,36.87
2019-03-28T20:05:20.725Z,36.95
2019-03-28T20:07:50.346Z,33.73
2019-03-28T20:10:19.999Z,25.20
2019-03-28T20:12:49.451Z,26.37
2019-03-28T20:15:19.140Z,24.30
2019-03-28T20:17:48.872Z,28.38
2019-03-28T20:20:18.403Z,29.95
2019-03-28T20:22:47.931Z,38.17
2019-03-28T20:25:17.461Z,35.37
2019-03-28T20:27:49.942Z,25.07
2019-03-28T20:30:19.763Z,25.75
2019-03-28T20:32:49.391Z,27.70
2019-03-28T20:35:19.074Z,22.22
2019-03-28T20:37:49.678Z,25.72
2019-03-28T20:40:19.407Z,41.58
2019-03-28T20:42:48.876Z,28.50
2019-03-28T20:47:48.399Z,32.03
2019-03-28T20:50:18.025Z,29.27
2019-03-28T20:52:47.581Z,24.33
2019-03-28T20:55:17.238Z,88.37
2019-03-28T20:57:46.904Z,22.07
2019-03-28T21:00:18.126Z,38.80
2019-03-28T21:02:48.731Z,25.62
2019-03-28T21:05:18.641Z,26.77
2019-03-28T21:07:48.231Z,23.85
2019-03-28T21:10:24.706Z,32.80
2019-03-28T21:12:54.739Z,20.92
2019-03-28T21:15:24.299Z,31.35
2019-03-28T21:17:53.864Z,29.10
2019-03-28T21:20:23.463Z,29.20
2019-03-28T21:22:53.204Z,26.93
2019-03-28T21:25:22.910Z,31.15
2019-03-28T21:27:52.554Z,39.88
2019-03-28T21:30:22.023Z,34.33
2019-03-28T21:32:55.546Z,25.77
2019-03-28T21:35:23.085Z,28.73
2019-03-28T21:37:52.706Z,23.20
2019-03-28T21:43:00.065Z,28.30
2019-03-28T21:45:29.784Z,41.28
2019-03-28T21:47:59.505Z,61.08
2019-03-28T21:50:29.139Z,53.15
2019-03-28T21:52:58.881Z,36.85
2019-03-28T21:55:28.392Z,25.90
2019-03-28T21:57:58.017Z,48.07
2019-03-28T22:00:27.745Z,31.45
2019-03-28T22:02:57.389Z,49.80
2019-03-28T22:05:28.835Z,45.05
2019-03-28T22:07:58.472Z,65.85
2019-03-28T22:10:27.996Z,64.12
2019-03-28T22:12:57.543Z,72.53
2019-03-28T22:15:27.255Z,80.67
2019-03-28T22:17:56.981Z,192.30
2019-03-28T22:20:26.508Z,209.05
2019-03-28T22:22:56.130Z,140.77
2019-03-28T22:25:25.771Z,90.07
2019-03-28T22:27:55.289Z,69.15
2019-03-28T22:30:24.920Z,97.00
2019-03-28T22:32:54.552Z,116.35
2019-03-28T22:35:24.172Z,117.75
2019-03-28T22:37:54.761Z,113.80
2019-03-28T22:40:24.455Z,110.50
2019-03-28T22:42:53.985Z,109.95
2019-03-28T22:45:23.711Z,123.60
2019-03-28T22:47:53.779Z,111.90
2019-03-28T22:50:24.327Z,126.25
2019-03-28T22:52:53.816Z,99.77
2019-03-28T22:55:23.353Z,82.50
2019-03-28T22:57:54.147Z,79.42
2019-03-28T23:00:27.105Z,88.72
2019-03-28T23:02:58.242Z,129.25
2019-03-28T23:05:27.786Z,147.80
2019-03-28T23:07:57.418Z,113.47
2019-03-28T23:10:27.045Z,122.75
2019-03-28T23:12:56.663Z,59.65
2019-03-28T23:15:26.296Z,91.05
2019-03-28T23:17:55.937Z,92.20
2019-03-28T23:20:25.554Z,90.85
2019-03-28T23:22:55.279Z,68.50
2019-03-28T23:25:24.809Z,54.30
2019-03-28T23:27:54.440Z,62.38
2019-03-28T23:30:24.171Z,82.65
2019-03-28T23:32:53.806Z,96.05
2019-03-28T23:35:23.423Z,98.15
2019-03-28T23:37:53.154Z,80.40
2019-03-28T23:40:26.132Z,34.00
2019-03-28T23:42:54.861Z,55.88
2019-03-28T23:45:24.488Z,61.48
2019-03-28T23:47:54.147Z,57.48
2019-03-28T23:50:23.748Z,53.85
2019-03-28T23:52:53.275Z,73.95
2019-03-28T23:55:22.805Z,71.02
2019-03-28T23:57:52.430Z,75.92
